Welcome to Boston ARTCC, where excellence is served daily with a cup of MOCHA HAGoTDI


Whether you are a pilot, controller, or a little of both; ZBW is the premier airspace in VATSIM

News

Real-World Impact of VATSIM Controllers

Congratulations to one of our controllers at vZBW ARTCC, Erik Partridge (PG), for catching yet another error on an update of the RNAV arrival into KPWM.  In his honor the FAA has issued this NOTAM:

!FDC 4/1894 PWM CHART PORTLAND INTL JETPORT, PORTLAND, ME. SCOGS TWO ARRIVAL (RNAV) (SCOGS.SCOGS2) ... CORRECT WAYPOINT NAME: CHANGE SPELLING OF ARRAR TO ARARR. 1410231211-PERM


VATSIM has real-world impacts everyday!

4 days ago

ZBW Website NOTAM

Attention ZBW Controllers (and TS3 visitors):


Please update your settings to reflect the host as "bostonartcc.net" instead of "ts3.bostonartcc.net". Due to what appears to be local DNS caching issues, the old ts3 subdomain will no longer respond.


Please note that all email addresses are the same post-migration, however you may also elect to contact staff members through the roster.


Student Controllers

Please use the training center to request training sessions. This will provide a direct link for staff members to more easily monitor and manage training sessions.

1 month ago

ATC Online

Controller Position Frequency Sign-On
No controllers currently online.
Upcoming Scheduled Staffing
PG on BOS_S_CTR starting Fri, Oct 31, 2014 10:00 PM

Air Traffic

Inbound: 6 Outbound: 6 View All

AAL144 KBNA CHADM2 SWAPP J42 ... J222 JFK KRANN3 Mark Ross KDFW
T/B752/F KBOS FL370 ETE: 18 hours
ACA429 CYYZ CYYZ/06L AIRCO WELTI ... J16 ALB QUABN2 Nick Harasym - KLGA
T/A320/F KBOS FL370 ETE: under 1 hour
AWE5377 KPHL DITCH J225 JFK KRANN3 Graham Ritz KIAD
E170/Q KBOS 23000 ETE: 1 hours
BBN015 CYYT YYT V312 YQY J575 CANAL philip kirwan EGCC
H/B737 KBOS 36000 ETE: under 1 hour
N92HF KISP KISP CCC V46 ... HTO NEWBE1 KACK Michael Cavanaugh KISP
C172/A KACK 7000 ETE: 1 hours

Weather parsed

KBOS 311854Z 07011KT 10SM FEW033 BKN055 OVC250 11/03 A2999 RMK AO2 SLP154 T01060033

KMHT 311853Z 04003KT 10SM SCT035 OVC055 11/01 A2999 RMK AO2 SLP168 T01060006

KBDL 311851Z 35007KT 10SM BKN048 OVC200 12/03 A2995 RMK AO2 SLP142 T01170033

KPVD 311851Z 05013KT 10SM FEW033 BKN043 BKN060 OVC250 12/05 A2995 RMK AO2 SLP141 T01220050